To NAV CANADA Home Page Login to a new session Search on AWWS site Feedback and Comments Disclaimer Vers la page française équivalente Tips FAQ What's new on the site To the Forecasts and Observations / NOTAM section To "File a Flight Plan" website Publications and other links Update of the User's profile FIC Telephone Numbers My Weather Data Folder Route Weather Data Regional Weather Data Local Weather Data To the Forecasts and Observations / NOTAM section
Request Generated 08/29/2016 at 23:25:36 UTC . Weather information available at that time is displayed.

METAR/TAF

OTTAWA/MACDONALD-CARTIER INTL/ON    

METAR CYOW 292300Z 33006KT 15SM FEW055 FEW100 FEW250 23/12 A3019 RMK
SC1AC1CI1 AC TR SLP225 DENSITY ALT 1000FT=
METAR CYOW 292200Z 30007KT 280V340 15SM FEW055 SCT250 24/12 A3019 RMK
SC1CI3 SLP224 DENSITY ALT 1200FT=
METAR CYOW 292100Z 33009G15KT 15SM FEW050 SCT250 25/12 A3020 RMK
CU1CI3 SLP228 DENSITY ALT 1200FT=

TAF CYOW 292038Z 2921/3018 36008KT P6SM FEW050 SCT250
FM300200 VRB03KT P6SM SKC
FM301200 17003KT P6SM FEW090 FEW220
FM301500 21009KT P6SM FEW060
FM301700 28010KT P6SM -SHRA BKN040 BKN190 PROB30 3017/3018
VRB20G30KT 2SM +TSRA BR BKN020CB BKN260
RMK NXT FCST BY 300000Z=
Your time UTC time
Weather data provided by Environment Canada and NAV CANADA